AAL207 KSAN-KSFO
Flight info
| Callsign | AAL207 |
|---|---|
| Flight time | 1h 9m |
| Altitude | 32000 |
| Route | PADRZ2 IKAYE RIZIN SPLNT STOKD SERFR SERFR4 |
| Aircraft | B738/M-SDE2E3FGHIRWXY/LB1 |
Departure
| Time | 2026-05-06 19:36 |
|---|---|
| Airport | San Diego International Airport (KSAN) |
Arrival
| Time | 2026-05-06 20:45 |
|---|---|
| Airport | San Francisco International Airport (KSFO) |
| Time | Latitude | Longitude | Altitude | Speed | Heading |
|---|---|---|---|---|---|
| 2026-05-06 19:06 | 32.73451 | -117.20363 | 23 ft | 0 kts | 235° |
| 2026-05-06 19:25 | 32.73455 | -117.20356 | 23 ft | 2 kts | 235° |
| 2026-05-06 19:25 | 32.73467 | -117.20337 | 23 ft | 3 kts | 234° |
| 2026-05-06 19:25 | 32.73479 | -117.20317 | 23 ft | 3 kts | 234° |
| 2026-05-06 19:25 | 32.73490 | -117.20298 | 23 ft | 3 kts | 233° |
| 2026-05-06 19:26 | 32.73503 | -117.20279 | 23 ft | 3 kts | 226° |
| 2026-05-06 19:26 | 32.73518 | -117.20263 | 23 ft | 3 kts | 217° |
| 2026-05-06 19:26 | 32.73535 | -117.20250 | 23 ft | 3 kts | 205° |
| 2026-05-06 19:26 | 32.73549 | -117.20244 | 23 ft | 1 kts | 195° |
| 2026-05-06 19:27 | 32.73553 | -117.20242 | 23 ft | 0 kts | 195° |
| 2026-05-06 19:30 | 32.73539 | -117.20216 | 23 ft | 8 kts | 95° |
| 2026-05-06 19:30 | 32.73537 | -117.20170 | 23 ft | 5 kts | 85° |
| 2026-05-06 19:30 | 32.73531 | -117.20082 | 23 ft | 15 kts | 102° |
| 2026-05-06 19:30 | 32.73506 | -117.19982 | 23 ft | 9 kts | 105° |
| 2026-05-06 19:31 | 32.73495 | -117.19932 | 23 ft | 7 kts | 102° |
| 2026-05-06 19:31 | 32.73469 | -117.19827 | 23 ft | 18 kts | 108° |
| 2026-05-06 19:31 | 32.73403 | -117.19547 | 23 ft | 20 kts | 108° |
| 2026-05-06 19:32 | 32.73360 | -117.19370 | 23 ft | 24 kts | 106° |
| 2026-05-06 19:32 | 32.73313 | -117.19173 | 23 ft | 24 kts | 104° |
| 2026-05-06 19:32 | 32.73277 | -117.19005 | 23 ft | 17 kts | 106° |
| 2026-05-06 19:32 | 32.73248 | -117.18894 | 23 ft | 14 kts | 108° |
| 2026-05-06 19:33 | 32.73216 | -117.18759 | 23 ft | 19 kts | 106° |
| 2026-05-06 19:33 | 32.73176 | -117.18595 | 23 ft | 21 kts | 107° |
| 2026-05-06 19:33 | 32.73138 | -117.18440 | 23 ft | 18 kts | 104° |
| 2026-05-06 19:33 | 32.73106 | -117.18302 | 23 ft | 19 kts | 104° |
| 2026-05-06 19:34 | 32.73066 | -117.18127 | 23 ft | 24 kts | 105° |
| 2026-05-06 19:34 | 32.73020 | -117.17940 | 23 ft | 23 kts | 105° |
| 2026-05-06 19:34 | 32.72970 | -117.17762 | 23 ft | 22 kts | 115° |
| 2026-05-06 19:34 | 32.72980 | -117.17616 | 23 ft | 14 kts | 28° |
| 2026-05-06 19:35 | 32.73045 | -117.17682 | 23 ft | 22 kts | 288° |
| 2026-05-06 19:35 | 32.73135 | -117.18063 | 23 ft | 76 kts | 287° |
| 2026-05-06 19:35 | 32.73335 | -117.18879 | 23 ft | 128 kts | 286° |
| 2026-05-06 19:35 | 32.73615 | -117.20035 | 181 ft | 160 kts | 287° |
| 2026-05-06 19:36 | 32.73951 | -117.21368 | 583 ft | 179 kts | 286° |
| 2026-05-06 19:36 | 32.74343 | -117.22846 | 1049 ft | 195 kts | 294° |
| 2026-05-06 19:36 | 32.75135 | -117.24268 | 1294 ft | 223 kts | 309° |
| 2026-05-06 19:36 | 32.76203 | -117.25756 | 1534 ft | 248 kts | 305° |
| 2026-05-06 19:37 | 32.77218 | -117.27519 | 1955 ft | 264 kts | 302° |
| 2026-05-06 19:37 | 32.78230 | -117.29254 | 2987 ft | 252 kts | 307° |
| 2026-05-06 19:37 | 32.79295 | -117.30874 | 3982 ft | 246 kts | 310° |
| 2026-05-06 19:37 | 32.80375 | -117.32479 | 4654 ft | 252 kts | 309° |
| 2026-05-06 19:38 | 32.81459 | -117.34145 | 5285 ft | 258 kts | 309° |
| 2026-05-06 19:38 | 32.82565 | -117.35854 | 5916 ft | 263 kts | 309° |
| 2026-05-06 19:38 | 32.83689 | -117.37593 | 6543 ft | 268 kts | 309° |
| 2026-05-06 19:38 | 32.84845 | -117.39386 | 7065 ft | 276 kts | 309° |
| 2026-05-06 19:39 | 32.86021 | -117.41214 | 7659 ft | 280 kts | 309° |
| 2026-05-06 19:39 | 32.87213 | -117.43067 | 8261 ft | 284 kts | 310° |
| 2026-05-06 19:39 | 32.88404 | -117.44920 | 8840 ft | 286 kts | 310° |
| 2026-05-06 19:39 | 32.89619 | -117.46812 | 9425 ft | 289 kts | 310° |
| 2026-05-06 19:40 | 32.90846 | -117.48720 | 10021 ft | 290 kts | 310° |
| 2026-05-06 19:40 | 32.92085 | -117.50651 | 10460 ft | 298 kts | 311° |
| 2026-05-06 19:40 | 32.93377 | -117.52660 | 10672 ft | 312 kts | 311° |
| 2026-05-06 19:40 | 32.94728 | -117.54752 | 10896 ft | 324 kts | 311° |
| 2026-05-06 19:41 | 32.96114 | -117.56907 | 11295 ft | 329 kts | 311° |
| 2026-05-06 19:41 | 32.97510 | -117.59085 | 11790 ft | 331 kts | 311° |
| 2026-05-06 19:41 | 32.98891 | -117.61244 | 12258 ft | 333 kts | 311° |
| 2026-05-06 19:41 | 33.00301 | -117.63449 | 12698 ft | 335 kts | 311° |
| 2026-05-06 19:42 | 33.01717 | -117.65665 | 13123 ft | 337 kts | 311° |
| 2026-05-06 19:42 | 33.03143 | -117.67897 | 13535 ft | 340 kts | 311° |
| 2026-05-06 19:42 | 33.04582 | -117.70149 | 13935 ft | 342 kts | 311° |
| 2026-05-06 19:42 | 33.06058 | -117.72371 | 14321 ft | 342 kts | 316° |
| 2026-05-06 19:43 | 33.07757 | -117.74349 | 14701 ft | 341 kts | 323° |
| 2026-05-06 19:43 | 33.09560 | -117.76197 | 15073 ft | 342 kts | 324° |
| 2026-05-06 19:43 | 33.11383 | -117.78041 | 15427 ft | 344 kts | 324° |
| 2026-05-06 19:43 | 33.13213 | -117.79898 | 15773 ft | 346 kts | 324° |
| 2026-05-06 19:44 | 33.15048 | -117.81765 | 16118 ft | 347 kts | 324° |
| 2026-05-06 19:44 | 33.16892 | -117.83642 | 16428 ft | 350 kts | 324° |
| 2026-05-06 19:44 | 33.18746 | -117.85533 | 16752 ft | 351 kts | 324° |
| 2026-05-06 19:44 | 33.20559 | -117.87441 | 17054 ft | 354 kts | 322° |
| 2026-05-06 19:45 | 33.22338 | -117.89488 | 17365 ft | 356 kts | 320° |
| 2026-05-06 19:45 | 33.24094 | -117.91595 | 17633 ft | 359 kts | 320° |
| 2026-05-06 19:45 | 33.25848 | -117.93728 | 17907 ft | 361 kts | 320° |
| 2026-05-06 19:45 | 33.27613 | -117.95868 | 18183 ft | 362 kts | 320° |
| 2026-05-06 19:46 | 33.29387 | -117.98016 | 18449 ft | 364 kts | 320° |
| 2026-05-06 19:46 | 33.31170 | -118.00169 | 18710 ft | 365 kts | 320° |
| 2026-05-06 19:46 | 33.32956 | -118.02325 | 19018 ft | 365 kts | 320° |
| 2026-05-06 19:46 | 33.34747 | -118.04483 | 19255 ft | 366 kts | 320° |
| 2026-05-06 19:47 | 33.36544 | -118.06649 | 19481 ft | 368 kts | 320° |
| 2026-05-06 19:47 | 33.38353 | -118.08827 | 19703 ft | 369 kts | 320° |
| 2026-05-06 19:47 | 33.40163 | -118.11004 | 20048 ft | 367 kts | 320° |
| 2026-05-06 19:47 | 33.41955 | -118.13163 | 20422 ft | 364 kts | 320° |
| 2026-05-06 19:48 | 33.43733 | -118.15302 | 20796 ft | 360 kts | 320° |
| 2026-05-06 19:48 | 33.45479 | -118.17387 | 21166 ft | 357 kts | 321° |
| 2026-05-06 19:48 | 33.47230 | -118.19481 | 21542 ft | 356 kts | 321° |
| 2026-05-06 19:48 | 33.49003 | -118.21607 | 21920 ft | 364 kts | 320° |
| 2026-05-06 19:49 | 33.50811 | -118.23773 | 22298 ft | 370 kts | 320° |
| 2026-05-06 19:49 | 33.52643 | -118.25975 | 22676 ft | 377 kts | 320° |
| 2026-05-06 19:49 | 33.54425 | -118.28118 | 23037 ft | 382 kts | 320° |
| 2026-05-06 19:49 | 33.56398 | -118.30494 | 23430 ft | 387 kts | 320° |
| 2026-05-06 19:50 | 33.58309 | -118.32796 | 23808 ft | 391 kts | 320° |
| 2026-05-06 19:50 | 33.60238 | -118.35122 | 24184 ft | 395 kts | 320° |
| 2026-05-06 19:50 | 33.62186 | -118.37473 | 24561 ft | 399 kts | 320° |
| 2026-05-06 19:50 | 33.64124 | -118.39814 | 24932 ft | 401 kts | 320° |
| 2026-05-06 19:51 | 33.66101 | -118.42204 | 25309 ft | 404 kts | 320° |
| 2026-05-06 19:51 | 33.68089 | -118.44608 | 25686 ft | 406 kts | 320° |
| 2026-05-06 19:51 | 33.70083 | -118.47022 | 26061 ft | 408 kts | 320° |
| 2026-05-06 19:51 | 33.72083 | -118.49444 | 26437 ft | 409 kts | 320° |
| 2026-05-06 19:52 | 33.74068 | -118.51851 | 26809 ft | 410 kts | 320° |
| 2026-05-06 19:52 | 33.76078 | -118.54289 | 27185 ft | 411 kts | 320° |
| 2026-05-06 19:52 | 33.78093 | -118.56735 | 27561 ft | 411 kts | 320° |
| 2026-05-06 19:52 | 33.80113 | -118.59189 | 27938 ft | 411 kts | 320° |
| 2026-05-06 19:53 | 33.82122 | -118.61632 | 28313 ft | 411 kts | 321° |
| 2026-05-06 19:53 | 33.84129 | -118.64073 | 28688 ft | 410 kts | 321° |
| 2026-05-06 19:53 | 33.86137 | -118.66518 | 29064 ft | 410 kts | 321° |
| 2026-05-06 19:53 | 33.88138 | -118.68956 | 29439 ft | 409 kts | 321° |
| 2026-05-06 19:54 | 33.90134 | -118.71389 | 29814 ft | 408 kts | 321° |
| 2026-05-06 19:54 | 33.92123 | -118.73809 | 30189 ft | 406 kts | 321° |
| 2026-05-06 19:54 | 33.94087 | -118.76194 | 30560 ft | 404 kts | 321° |
| 2026-05-06 19:54 | 33.96061 | -118.78599 | 30935 ft | 403 kts | 321° |
| 2026-05-06 19:55 | 33.98026 | -118.81000 | 31310 ft | 401 kts | 321° |
| 2026-05-06 19:55 | 33.99976 | -118.83387 | 31685 ft | 398 kts | 321° |
| 2026-05-06 19:55 | 34.01914 | -118.85764 | 32057 ft | 396 kts | 321° |
| 2026-05-06 19:55 | 34.03859 | -118.88151 | 32148 ft | 402 kts | 321° |
| 2026-05-06 19:56 | 34.07844 | -118.93050 | 32164 ft | 416 kts | 321° |
| 2026-05-06 19:56 | 34.11937 | -118.98085 | 32162 ft | 429 kts | 320° |
| 2026-05-06 19:57 | 34.15802 | -119.03776 | 32161 ft | 449 kts | 310° |
| 2026-05-06 19:57 | 34.19164 | -119.10268 | 32157 ft | 461 kts | 307° |
| 2026-05-06 19:58 | 34.22551 | -119.16964 | 32158 ft | 470 kts | 307° |
| 2026-05-06 19:58 | 34.26025 | -119.23736 | 32160 ft | 477 kts | 307° |
| 2026-05-06 19:59 | 34.29535 | -119.30578 | 32162 ft | 480 kts | 307° |
| 2026-05-06 19:59 | 34.33032 | -119.37430 | 32163 ft | 482 kts | 307° |
| 2026-05-06 20:00 | 34.36549 | -119.44342 | 32165 ft | 479 kts | 307° |
| 2026-05-06 20:00 | 34.40049 | -119.51095 | 32164 ft | 467 kts | 310° |
| 2026-05-06 20:01 | 34.44165 | -119.57036 | 32163 ft | 455 kts | 319° |
| 2026-05-06 20:01 | 34.48571 | -119.62466 | 32156 ft | 449 kts | 320° |
| 2026-05-06 20:02 | 34.52935 | -119.67840 | 32154 ft | 445 kts | 320° |
| 2026-05-06 20:02 | 34.57256 | -119.73173 | 32152 ft | 441 kts | 320° |
| 2026-05-06 20:03 | 34.61517 | -119.78441 | 32153 ft | 438 kts | 320° |
| 2026-05-06 20:03 | 34.65782 | -119.83715 | 32161 ft | 435 kts | 320° |
| 2026-05-06 20:04 | 34.70026 | -119.88940 | 32147 ft | 433 kts | 320° |
| 2026-05-06 20:04 | 34.74238 | -119.94149 | 32135 ft | 431 kts | 320° |
| 2026-05-06 20:05 | 34.78410 | -119.99319 | 32130 ft | 429 kts | 320° |
| 2026-05-06 20:05 | 34.82580 | -120.04502 | 32132 ft | 428 kts | 320° |
| 2026-05-06 20:06 | 34.86742 | -120.09679 | 32137 ft | 426 kts | 320° |
| 2026-05-06 20:06 | 34.90891 | -120.14829 | 32142 ft | 425 kts | 320° |
| 2026-05-06 20:07 | 34.94996 | -120.19955 | 32141 ft | 424 kts | 320° |
| 2026-05-06 20:07 | 34.99100 | -120.25101 | 32144 ft | 423 kts | 319° |
| 2026-05-06 20:08 | 35.03198 | -120.30252 | 32145 ft | 422 kts | 319° |
| 2026-05-06 20:08 | 35.07292 | -120.35395 | 32145 ft | 422 kts | 319° |
| 2026-05-06 20:09 | 35.11434 | -120.40372 | 32144 ft | 419 kts | 323° |
| 2026-05-06 20:09 | 35.15751 | -120.45145 | 32143 ft | 418 kts | 323° |
| 2026-05-06 20:10 | 35.20048 | -120.49937 | 32144 ft | 418 kts | 322° |
| 2026-05-06 20:10 | 35.24378 | -120.54794 | 32143 ft | 424 kts | 323° |
| 2026-05-06 20:11 | 35.28775 | -120.59700 | 32142 ft | 430 kts | 322° |
| 2026-05-06 20:11 | 35.33176 | -120.64655 | 32143 ft | 435 kts | 322° |
| 2026-05-06 20:12 | 35.37649 | -120.69710 | 32147 ft | 439 kts | 322° |
| 2026-05-06 20:12 | 35.42150 | -120.74815 | 32153 ft | 442 kts | 322° |
| 2026-05-06 20:13 | 35.46690 | -120.79965 | 32161 ft | 446 kts | 322° |
| 2026-05-06 20:13 | 35.51395 | -120.84837 | 32166 ft | 445 kts | 327° |
| 2026-05-06 20:14 | 35.56382 | -120.89391 | 32169 ft | 447 kts | 328° |
| 2026-05-06 20:14 | 35.61375 | -120.93984 | 32170 ft | 450 kts | 327° |
| 2026-05-06 20:15 | 35.66379 | -120.98625 | 32171 ft | 452 kts | 327° |
| 2026-05-06 20:15 | 35.71403 | -121.03307 | 32177 ft | 453 kts | 327° |
| 2026-05-06 20:16 | 35.76439 | -121.08005 | 32178 ft | 455 kts | 327° |
| 2026-05-06 20:16 | 35.81464 | -121.12676 | 32178 ft | 456 kts | 327° |
| 2026-05-06 20:17 | 35.86518 | -121.17387 | 32177 ft | 454 kts | 327° |
| 2026-05-06 20:17 | 35.91541 | -121.22099 | 32176 ft | 452 kts | 327° |
| 2026-05-06 20:18 | 35.95694 | -121.26012 | 32175 ft | 451 kts | 327° |
| 2026-05-06 20:18 | 36.00671 | -121.30708 | 32175 ft | 449 kts | 327° |
| 2026-05-06 20:19 | 36.05631 | -121.35389 | 32174 ft | 448 kts | 326° |
| 2026-05-06 20:19 | 36.10753 | -121.39725 | 32173 ft | 444 kts | 332° |
| 2026-05-06 20:20 | 36.16007 | -121.43731 | 32173 ft | 443 kts | 332° |
| 2026-05-06 20:20 | 36.21202 | -121.47744 | 32172 ft | 442 kts | 332° |
| 2026-05-06 20:21 | 36.26419 | -121.51777 | 32171 ft | 442 kts | 332° |
| 2026-05-06 20:21 | 36.31627 | -121.55837 | 32171 ft | 441 kts | 332° |
| 2026-05-06 20:22 | 36.36821 | -121.59910 | 32171 ft | 441 kts | 331° |
| 2026-05-06 20:22 | 36.39411 | -121.61946 | 32045 ft | 444 kts | 331° |
| 2026-05-06 20:22 | 36.42058 | -121.64028 | 31430 ft | 458 kts | 331° |
| 2026-05-06 20:23 | 36.44787 | -121.66177 | 30804 ft | 469 kts | 331° |
| 2026-05-06 20:23 | 36.47575 | -121.68371 | 30187 ft | 478 kts | 330° |
| 2026-05-06 20:23 | 36.53125 | -121.72736 | 29797 ft | 475 kts | 330° |
| 2026-05-06 20:24 | 36.55937 | -121.74955 | 29379 ft | 478 kts | 330° |
| 2026-05-06 20:24 | 36.58730 | -121.77165 | 29225 ft | 470 kts | 330° |
| 2026-05-06 20:24 | 36.61457 | -121.79327 | 28645 ft | 461 kts | 330° |
| 2026-05-06 20:24 | 36.64139 | -121.81456 | 28019 ft | 453 kts | 330° |
| 2026-05-06 20:25 | 36.66779 | -121.83554 | 27394 ft | 447 kts | 330° |
| 2026-05-06 20:25 | 36.69389 | -121.85629 | 26768 ft | 443 kts | 330° |
| 2026-05-06 20:25 | 36.72029 | -121.87566 | 26140 ft | 437 kts | 335° |
| 2026-05-06 20:25 | 36.74793 | -121.89101 | 25513 ft | 431 kts | 342° |
| 2026-05-06 20:26 | 36.77589 | -121.90232 | 24896 ft | 426 kts | 346° |
| 2026-05-06 20:26 | 36.80443 | -121.91168 | 24269 ft | 422 kts | 348° |
| 2026-05-06 20:26 | 36.83298 | -121.91973 | 23643 ft | 418 kts | 349° |
| 2026-05-06 20:26 | 36.86125 | -121.92760 | 23018 ft | 415 kts | 349° |
| 2026-05-06 20:27 | 36.88935 | -121.93545 | 22390 ft | 412 kts | 349° |
| 2026-05-06 20:27 | 36.91721 | -121.94317 | 21764 ft | 408 kts | 351° |
| 2026-05-06 20:27 | 36.94523 | -121.94470 | 21135 ft | 402 kts | 8° |
| 2026-05-06 20:27 | 36.97177 | -121.93484 | 20508 ft | 397 kts | 27° |
| 2026-05-06 20:28 | 36.99394 | -121.91479 | 19883 ft | 394 kts | 45° |
| 2026-05-06 20:28 | 37.00935 | -121.88710 | 19264 ft | 394 kts | 63° |
| 2026-05-06 20:28 | 37.01667 | -121.85417 | 18637 ft | 396 kts | 82° |
| 2026-05-06 20:28 | 37.01485 | -121.81982 | 18010 ft | 399 kts | 101° |
| 2026-05-06 20:29 | 37.00405 | -121.78781 | 17383 ft | 403 kts | 119° |
| 2026-05-06 20:29 | 36.98544 | -121.76165 | 16757 ft | 407 kts | 138° |
| 2026-05-06 20:29 | 36.96095 | -121.74381 | 16130 ft | 410 kts | 156° |
| 2026-05-06 20:29 | 36.93317 | -121.73592 | 15503 ft | 411 kts | 175° |
| 2026-05-06 20:30 | 36.90477 | -121.73929 | 14875 ft | 411 kts | 194° |
| 2026-05-06 20:30 | 36.85768 | -121.77706 | 13622 ft | 405 kts | 232° |
| 2026-05-06 20:30 | 36.84394 | -121.80723 | 12997 ft | 399 kts | 251° |
| 2026-05-06 20:31 | 36.83890 | -121.84078 | 12466 ft | 389 kts | 271° |
| 2026-05-06 20:31 | 36.84314 | -121.87286 | 12264 ft | 371 kts | 291° |
| 2026-05-06 20:31 | 36.85545 | -121.90021 | 12063 ft | 355 kts | 311° |
| 2026-05-06 20:31 | 36.87357 | -121.91993 | 11862 ft | 340 kts | 330° |
| 2026-05-06 20:32 | 36.89481 | -121.93117 | 11797 ft | 324 kts | 345° |
| 2026-05-06 20:32 | 36.91604 | -121.93865 | 11791 ft | 310 kts | 344° |
| 2026-05-06 20:32 | 36.93613 | -121.94658 | 11787 ft | 296 kts | 344° |
| 2026-05-06 20:32 | 36.95538 | -121.95422 | 11781 ft | 284 kts | 344° |
| 2026-05-06 20:33 | 36.97384 | -121.96146 | 11780 ft | 273 kts | 345° |
| 2026-05-06 20:33 | 36.99168 | -121.96844 | 11776 ft | 264 kts | 345° |
| 2026-05-06 20:33 | 37.00891 | -121.97518 | 11765 ft | 256 kts | 345° |
| 2026-05-06 20:33 | 37.02579 | -121.98178 | 11762 ft | 251 kts | 345° |
| 2026-05-06 20:34 | 37.04232 | -121.98824 | 11759 ft | 246 kts | 345° |
| 2026-05-06 20:34 | 37.05831 | -121.99449 | 11757 ft | 242 kts | 345° |
| 2026-05-06 20:34 | 37.07417 | -122.00069 | 11802 ft | 235 kts | 345° |
| 2026-05-06 20:34 | 37.08996 | -122.00687 | 11574 ft | 242 kts | 345° |
| 2026-05-06 20:35 | 37.10645 | -122.01332 | 11272 ft | 254 kts | 345° |
| 2026-05-06 20:35 | 37.12377 | -122.02008 | 10931 ft | 267 kts | 344° |
| 2026-05-06 20:35 | 37.14201 | -122.02723 | 10568 ft | 279 kts | 344° |
| 2026-05-06 20:35 | 37.16088 | -122.03462 | 10191 ft | 288 kts | 344° |
| 2026-05-06 20:36 | 37.18025 | -122.04220 | 9806 ft | 295 kts | 344° |
| 2026-05-06 20:36 | 37.19969 | -122.04980 | 9419 ft | 297 kts | 344° |
| 2026-05-06 20:36 | 37.21948 | -122.05759 | 9030 ft | 298 kts | 344° |
| 2026-05-06 20:36 | 37.23934 | -122.06537 | 8640 ft | 301 kts | 344° |
| 2026-05-06 20:37 | 37.25951 | -122.07255 | 8241 ft | 301 kts | 351° |
| 2026-05-06 20:37 | 37.28029 | -122.07268 | 7866 ft | 299 kts | 10° |
| 2026-05-06 20:37 | 37.30017 | -122.06523 | 7568 ft | 296 kts | 20° |
| 2026-05-06 20:37 | 37.31912 | -122.05555 | 7342 ft | 290 kts | 23° |
| 2026-05-06 20:38 | 37.33741 | -122.04542 | 7156 ft | 284 kts | 24° |
| 2026-05-06 20:38 | 37.35499 | -122.03567 | 7003 ft | 276 kts | 23° |
| 2026-05-06 20:38 | 37.37242 | -122.02639 | 6841 ft | 268 kts | 19° |
| 2026-05-06 20:38 | 37.39065 | -122.02111 | 6373 ft | 273 kts | 7° |
| 2026-05-06 20:39 | 37.40984 | -122.02066 | 5924 ft | 277 kts | 357° |
| 2026-05-06 20:39 | 37.42887 | -122.02195 | 5741 ft | 270 kts | 357° |
| 2026-05-06 20:39 | 37.44737 | -122.02340 | 5562 ft | 263 kts | 355° |
| 2026-05-06 20:39 | 37.46449 | -122.03037 | 5373 ft | 260 kts | 328° |
| 2026-05-06 20:40 | 37.47720 | -122.04621 | 5207 ft | 256 kts | 309° |
| 2026-05-06 20:40 | 37.48737 | -122.06434 | 5043 ft | 249 kts | 307° |
| 2026-05-06 20:40 | 37.49674 | -122.08219 | 4769 ft | 247 kts | 303° |
| 2026-05-06 20:40 | 37.50547 | -122.10086 | 4454 ft | 248 kts | 301° |
| 2026-05-06 20:41 | 37.51377 | -122.12001 | 4128 ft | 249 kts | 300° |
| 2026-05-06 20:41 | 37.52196 | -122.13933 | 3796 ft | 250 kts | 299° |
| 2026-05-06 20:41 | 37.53008 | -122.15858 | 3464 ft | 246 kts | 299° |
| 2026-05-06 20:41 | 37.53798 | -122.17734 | 3140 ft | 238 kts | 298° |
| 2026-05-06 20:42 | 37.54565 | -122.19555 | 2829 ft | 231 kts | 298° |
| 2026-05-06 20:42 | 37.55310 | -122.21324 | 2526 ft | 225 kts | 298° |
| 2026-05-06 20:42 | 37.56034 | -122.23048 | 2230 ft | 220 kts | 298° |
| 2026-05-06 20:42 | 37.56743 | -122.24733 | 1942 ft | 215 kts | 298° |
| 2026-05-06 20:43 | 37.57436 | -122.26384 | 1659 ft | 211 kts | 298° |
| 2026-05-06 20:43 | 37.58115 | -122.28006 | 1397 ft | 206 kts | 298° |
| 2026-05-06 20:43 | 37.58740 | -122.29597 | 1161 ft | 199 kts | 296° |
| 2026-05-06 20:43 | 37.59391 | -122.31149 | 751 ft | 201 kts | 298° |
| 2026-05-06 20:44 | 37.60078 | -122.32598 | 630 ft | 186 kts | 298° |
| 2026-05-06 20:44 | 37.60649 | -122.34042 | 310 ft | 180 kts | 295° |
| 2026-05-06 20:44 | 37.61213 | -122.35389 | 90 ft | 167 kts | 297° |
| 2026-05-06 20:44 | 37.61727 | -122.36587 | 21 ft | 136 kts | 293° |
| 2026-05-06 20:45 | 37.61984 | -122.37228 | 21 ft | 52 kts | 297° |
| 2026-05-06 20:45 | 37.62109 | -122.37541 | 21 ft | 28 kts | 297° |
| 2026-05-06 20:45 | 37.62115 | -122.37712 | 21 ft | 9 kts | 231° |
| 2026-05-06 20:45 | 37.62093 | -122.37743 | 21 ft | 2 kts | 229° |
| 2026-05-06 20:46 | 37.62059 | -122.37792 | 21 ft | 14 kts | 227° |
| 2026-05-06 20:46 | 37.61986 | -122.37900 | 21 ft | 11 kts | 227° |
| 2026-05-06 20:46 | 37.61933 | -122.37973 | 21 ft | 13 kts | 228° |
| 2026-05-06 20:46 | 37.61913 | -122.38082 | 21 ft | 14 kts | 292° |
| 2026-05-06 20:47 | 37.61954 | -122.38188 | 21 ft | 12 kts | 276° |
| 2026-05-06 20:47 | 37.61915 | -122.38262 | 21 ft | 10 kts | 243° |
| 2026-05-06 20:47 | 37.61917 | -122.38334 | 21 ft | 6 kts | 282° |
| 2026-05-06 20:47 | 37.61920 | -122.38351 | 21 ft | 0 kts | 282° |